Terminal Aerodrome Forecast
Issued by NWS

Home | Current Version | Previous Version | Text Only | Print | Product List | Glossary On
Versions: 1 2 3 4 5 6 7 8 9 10 11 12 13 14 15
000
FTUS45 KTFX 192300
TAFBZN
TAF
KBZN 192337Z 2000/2024 33006KT P6SM BKN090
     FM200200 25005KT P6SM FEW120
     FM202000 VRB05KT P6SM FEW090=

USA.gov is the U.S. government's official web portal to all federal, state and local government web resources and services.